Terminal Aerodrome Forecast
Issued by NWS

Home | Current Version | Previous Version | Graphics & Text | Print | Product List | Glossary On
Versions: 1 2 3 4 5 6 7 8 9 10 11 12 13 14 15 16 17
184
FTUS43 KUNR 232231 AAB
TAFGCC
TAF AMD
KGCC 232231Z 2323/2418 36013KT P6SM -SHRA OVC008
     FM240800 33008KT P6SM SCT015 SCT080=

USA.gov is the U.S. government's official web portal to all federal, state and local government web resources and services.